createdAt,value
2018-02-15T00:02:16.390Z,16.45
2018-02-15T00:04:43.123Z,15.30
2018-02-15T00:07:09.876Z,15.63
2018-02-15T00:09:36.641Z,16.05
2018-02-15T00:12:03.393Z,14.30
2018-02-15T00:14:30.132Z,13.52
2018-02-15T00:16:56.889Z,15.55
2018-02-15T00:19:23.601Z,19.67
2018-02-15T00:21:50.328Z,16.73
2018-02-15T00:24:17.115Z,14.27
2018-02-15T00:26:43.854Z,17.17
2018-02-15T00:29:10.571Z,12.85
2018-02-15T00:31:37.306Z,11.85
2018-02-15T00:34:04.065Z,16.02
2018-02-15T00:36:30.775Z,19.48
2018-02-15T00:38:57.578Z,14.05
2018-02-15T00:41:24.299Z,15.43
2018-02-15T00:43:51.042Z,14.85
2018-02-15T00:46:17.801Z,15.65
2018-02-15T00:48:44.543Z,15.73
2018-02-15T00:51:11.322Z,15.88
2018-02-15T00:53:38.065Z,12.37
2018-02-15T00:56:04.809Z,15.00
2018-02-15T00:58:31.557Z,16.37
2018-02-15T01:00:58.285Z,14.57
2018-02-15T01:03:25.079Z,15.25
2018-02-15T01:05:51.792Z,12.70
2018-02-15T01:08:18.518Z,15.32
2018-02-15T01:10:45.262Z,15.48
2018-02-15T01:13:12.000Z,15.73
2018-02-15T01:15:38.744Z,17.85
2018-02-15T01:18:05.533Z,16.35
2018-02-15T01:20:32.273Z,18.12
2018-02-15T01:22:59.028Z,16.58
2018-02-15T01:25:25.772Z,13.45
2018-02-15T01:27:52.533Z,13.60
2018-02-15T01:30:19.238Z,13.60
2018-02-15T01:32:46.044Z,12.40
2018-02-15T01:35:12.796Z,14.20
2018-02-15T01:37:39.575Z,15.63
2018-02-15T01:40:06.332Z,14.48
2018-02-15T01:42:33.061Z,14.07
2018-02-15T01:44:59.797Z,13.55
2018-02-15T01:47:26.544Z,15.32
2018-02-15T01:49:59.060Z,18.30
2018-02-15T01:52:25.835Z,16.00
2018-02-15T01:54:52.623Z,15.15
2018-02-15T01:57:19.346Z,15.13
2018-02-15T01:59:46.128Z,16.17
2018-02-15T02:02:12.862Z,15.07
2018-02-15T02:04:39.606Z,15.27
2018-02-15T02:07:06.321Z,15.57
2018-02-15T02:09:33.032Z,14.07
2018-02-15T02:11:59.776Z,19.95
2018-02-15T02:14:26.504Z,19.33
2018-02-15T02:16:53.260Z,18.90
2018-02-15T02:19:20.007Z,21.75
2018-02-15T02:21:46.733Z,23.12
2018-02-15T02:24:13.501Z,33.33
2018-02-15T02:26:40.216Z,22.62
2018-02-15T02:29:06.955Z,24.42
2018-02-15T02:31:33.696Z,27.02
2018-02-15T02:34:00.439Z,23.50
2018-02-15T02:36:27.184Z,23.00
2018-02-15T02:38:53.921Z,23.58
2018-02-15T02:41:20.651Z,21.17
2018-02-15T02:43:47.452Z,22.27
2018-02-15T02:46:14.171Z,23.55
2018-02-15T02:48:40.905Z,26.55
2018-02-15T02:51:07.654Z,24.50
2018-02-15T02:53:34.363Z,32.22
2018-02-15T02:56:01.126Z,26.23
2018-02-15T02:58:27.868Z,27.00
2018-02-15T03:00:54.619Z,22.42
2018-02-15T03:03:21.391Z,22.27
2018-02-15T03:05:48.135Z,20.73
2018-02-15T03:08:14.884Z,22.35
2018-02-15T03:10:41.603Z,27.73
2018-02-15T03:13:08.414Z,26.50
2018-02-15T03:15:35.161Z,24.95
2018-02-15T03:18:01.900Z,26.48
2018-02-15T03:20:28.639Z,23.87
2018-02-15T03:22:55.362Z,26.75
2018-02-15T03:25:22.090Z,20.90
2018-02-15T03:27:48.827Z,24.77
2018-02-15T03:30:15.597Z,25.12
2018-02-15T03:32:42.327Z,23.52
2018-02-15T03:35:09.053Z,24.60
2018-02-15T03:37:35.799Z,20.10
2018-02-15T03:40:02.550Z,27.08
2018-02-15T03:42:29.322Z,21.00
2018-02-15T03:44:56.054Z,22.90
2018-02-15T03:47:22.759Z,20.42
2018-02-15T03:49:49.505Z,21.98
2018-02-15T03:52:16.239Z,24.35
2018-02-15T03:54:43.057Z,23.30
2018-02-15T03:57:09.822Z,26.25
2018-02-15T03:59:36.568Z,20.12
2018-02-15T04:02:03.308Z,21.75
2018-02-15T04:04:30.014Z,26.65
2018-02-15T04:06:56.839Z,25.12
2018-02-15T04:09:23.541Z,22.80
2018-02-15T04:11:50.252Z,23.70
2018-02-15T04:14:16.981Z,20.92
2018-02-15T04:16:43.717Z,28.52
2018-02-15T04:19:10.454Z,25.52
2018-02-15T04:21:37.291Z,25.12
2018-02-15T04:24:04.006Z,27.77
2018-02-15T04:26:30.741Z,26.15
2018-02-15T04:28:57.468Z,25.65
2018-02-15T04:31:24.242Z,25.00
2018-02-15T04:33:51.004Z,32.10
2018-02-15T04:36:17.735Z,33.15
2018-02-15T04:38:44.582Z,34.70
2018-02-15T04:41:11.334Z,33.15
2018-02-15T04:43:38.066Z,36.97
2018-02-15T04:46:04.800Z,43.20
2018-02-15T04:48:31.511Z,32.42
2018-02-15T04:50:58.287Z,37.65
2018-02-15T04:53:25.041Z,33.63
2018-02-15T04:55:51.750Z,40.35
2018-02-15T04:58:18.530Z,35.88
2018-02-15T05:00:45.284Z,39.47
2018-02-15T05:03:12.020Z,34.55
2018-02-15T05:05:38.771Z,42.38
2018-02-15T05:08:05.489Z,41.75
2018-02-15T05:10:32.209Z,42.45
2018-02-15T05:12:59.009Z,35.15
2018-02-15T05:15:25.731Z,42.45
2018-02-15T05:17:52.466Z,37.50
2018-02-15T05:20:19.216Z,36.70
2018-02-15T05:22:45.945Z,41.47
2018-02-15T05:25:12.685Z,40.75
2018-02-15T05:27:39.490Z,41.13
2018-02-15T05:30:06.220Z,42.15
2018-02-15T05:32:32.963Z,42.55
2018-02-15T05:34:59.686Z,35.90
2018-02-15T05:37:26.428Z,37.35
2018-02-15T05:39:53.152Z,34.38
2018-02-15T05:42:19.889Z,39.88
2018-02-15T05:44:46.618Z,36.33
2018-02-15T05:47:13.360Z,35.60
2018-02-15T05:49:40.109Z,35.05
2018-02-15T05:52:06.844Z,40.58
2018-02-15T05:54:33.591Z,46.20
2018-02-15T05:57:00.341Z,34.60
2018-02-15T05:59:27.063Z,34.67
2018-02-15T06:01:53.810Z,28.35
2018-02-15T06:04:20.582Z,33.53
2018-02-15T06:06:47.323Z,32.17
2018-02-15T06:09:14.067Z,43.75
2018-02-15T06:11:40.781Z,41.22
2018-02-15T06:14:07.560Z,36.20
2018-02-15T06:16:34.317Z,34.08
2018-02-15T06:19:01.065Z,34.35
2018-02-15T06:21:27.835Z,34.38
2018-02-15T06:23:54.555Z,34.78
2018-02-15T06:26:21.282Z,29.20
2018-02-15T06:28:47.994Z,33.03
2018-02-15T06:31:14.726Z,45.72
2018-02-15T06:33:41.473Z,35.65
2018-02-15T06:36:08.222Z,33.88
2018-02-15T06:38:34.959Z,31.48
2018-02-15T06:41:01.703Z,35.53
2018-02-15T06:43:28.429Z,49.38
2018-02-15T06:45:55.200Z,34.30
2018-02-15T06:48:21.928Z,34.85
2018-02-15T06:50:48.673Z,36.78
2018-02-15T06:53:15.406Z,38.03
2018-02-15T06:55:42.147Z,37.80
2018-02-15T06:58:08.882Z,33.53
2018-02-15T07:00:35.703Z,42.85
2018-02-15T07:03:02.426Z,38.70
2018-02-15T07:05:29.205Z,38.65
2018-02-15T07:07:55.938Z,35.47
2018-02-15T07:10:22.662Z,43.00
2018-02-15T07:12:49.396Z,40.17
2018-02-15T07:15:16.129Z,37.58
2018-02-15T07:17:42.892Z,34.65
2018-02-15T07:20:09.647Z,47.13
2018-02-15T07:22:36.394Z,44.83
2018-02-15T07:25:03.107Z,38.58
2018-02-15T07:27:29.812Z,43.05
2018-02-15T07:29:56.522Z,38.33
2018-02-15T07:32:23.220Z,40.53
2018-02-15T07:34:49.981Z,40.25
2018-02-15T07:37:16.711Z,42.22
2018-02-15T07:39:43.434Z,40.80
2018-02-15T07:42:10.177Z,46.25
2018-02-15T07:44:36.879Z,46.78
2018-02-15T07:47:03.619Z,44.35
2018-02-15T07:49:30.386Z,41.40
2018-02-15T07:51:57.119Z,43.63
2018-02-15T07:54:23.858Z,39.92
2018-02-15T07:56:50.628Z,38.80
2018-02-15T07:59:17.372Z,34.42
2018-02-15T08:01:44.093Z,41.35
2018-02-15T08:04:10.829Z,36.58
2018-02-15T08:06:37.549Z,33.03
2018-02-15T08:09:04.337Z,28.23
2018-02-15T08:11:31.064Z,30.80
2018-02-15T08:13:57.764Z,33.75
2018-02-15T08:16:24.489Z,37.67
2018-02-15T08:18:51.193Z,39.47
2018-02-15T08:21:17.937Z,32.15
2018-02-15T08:23:45.008Z,35.10
2018-02-15T08:26:11.747Z,28.25
2018-02-15T08:28:38.464Z,34.97
2018-02-15T08:31:05.165Z,29.80
2018-02-15T08:33:31.906Z,29.08
2018-02-15T08:35:58.634Z,36.88
2018-02-15T08:38:25.353Z,34.38
2018-02-15T08:40:52.096Z,37.47
2018-02-15T08:43:18.813Z,34.80
2018-02-15T08:45:45.564Z,31.83
2018-02-15T08:48:12.284Z,40.28
2018-02-15T08:50:39.021Z,37.60
2018-02-15T08:53:05.753Z,46.17
2018-02-15T08:55:32.466Z,32.72
2018-02-15T08:57:59.170Z,29.50
2018-02-15T09:00:25.909Z,36.50
2018-02-15T09:02:52.655Z,35.33
2018-02-15T09:05:19.388Z,38.25
2018-02-15T09:07:46.117Z,29.70
2018-02-15T09:10:12.827Z,32.45
2018-02-15T09:12:39.565Z,41.03
2018-02-15T09:15:06.305Z,41.20
2018-02-15T09:17:33.051Z,39.55
2018-02-15T09:19:59.765Z,38.38
2018-02-15T09:22:26.527Z,40.35
2018-02-15T09:24:53.263Z,39.63
2018-02-15T09:27:20.010Z,49.75
2018-02-15T09:29:46.749Z,48.22
2018-02-15T09:32:13.474Z,46.63
2018-02-15T09:34:40.190Z,39.45
2018-02-15T09:37:06.928Z,34.45
2018-02-15T09:39:33.636Z,36.28
2018-02-15T09:42:00.374Z,31.58
2018-02-15T09:44:27.108Z,38.78
2018-02-15T09:46:53.820Z,33.28
2018-02-15T09:49:20.563Z,35.97
2018-02-15T09:51:47.290Z,42.42
2018-02-15T09:54:14.047Z,30.60
2018-02-15T09:56:40.779Z,31.08
2018-02-15T09:59:07.497Z,32.65
2018-02-15T10:01:34.246Z,33.80
2018-02-15T10:04:00.953Z,31.77
2018-02-15T10:06:27.716Z,28.35
2018-02-15T10:08:54.477Z,28.12
2018-02-15T10:11:21.196Z,28.80
2018-02-15T10:13:47.933Z,32.15
2018-02-15T10:16:14.708Z,31.08
2018-02-15T10:18:41.447Z,30.33
2018-02-15T10:21:08.191Z,25.40
2018-02-15T10:23:34.912Z,27.95
2018-02-15T10:26:01.635Z,31.58
2018-02-15T10:28:28.390Z,31.73
2018-02-15T10:30:55.603Z,35.13
2018-02-15T10:33:22.333Z,33.00
2018-02-15T10:35:49.069Z,25.42
2018-02-15T10:38:15.794Z,29.73
2018-02-15T10:40:42.524Z,24.63
2018-02-15T10:43:09.250Z,23.40
2018-02-15T10:45:36.012Z,34.17
2018-02-15T10:48:02.765Z,26.60
2018-02-15T10:50:29.499Z,24.97
2018-02-15T10:52:56.276Z,19.83
2018-02-15T10:55:23.016Z,27.60
2018-02-15T10:57:49.745Z,29.30
2018-02-15T11:00:16.524Z,24.53
2018-02-15T11:02:43.272Z,21.90
2018-02-15T11:05:15.680Z,18.80
2018-02-15T11:07:42.407Z,24.90
2018-02-15T11:10:09.172Z,22.70
2018-02-15T11:12:36.271Z,20.97
2018-02-15T11:15:03.004Z,24.10
2018-02-15T11:17:29.749Z,18.70
2018-02-15T11:19:56.487Z,19.73
2018-02-15T11:22:23.242Z,18.87
2018-02-15T11:24:49.966Z,29.07
2018-02-15T11:27:17.094Z,28.07
2018-02-15T11:29:44.232Z,29.47
2018-02-15T11:32:10.940Z,28.50
2018-02-15T11:34:37.649Z,14.20
2018-02-15T11:37:04.391Z,18.03
2018-02-15T11:39:31.105Z,17.53
2018-02-15T11:41:57.860Z,16.27
2018-02-15T11:44:24.578Z,19.30
2018-02-15T11:46:51.284Z,20.87
2018-02-15T11:49:18.011Z,16.90
2018-02-15T11:51:44.739Z,24.47
2018-02-15T11:54:11.455Z,21.37
2018-02-15T11:56:38.224Z,19.20
2018-02-15T11:59:04.924Z,17.80
2018-02-15T12:01:31.646Z,16.57
2018-02-15T12:03:58.386Z,18.20
2018-02-15T12:06:25.122Z,18.93
2018-02-15T12:08:51.856Z,13.43
2018-02-15T12:11:18.576Z,13.47
2018-02-15T12:13:45.287Z,17.00
2018-02-15T12:16:12.039Z,19.20
2018-02-15T12:18:38.779Z,15.23
2018-02-15T12:21:05.521Z,25.80
2018-02-15T12:23:32.298Z,14.97
2018-02-15T12:25:59.050Z,16.20
2018-02-15T12:28:25.812Z,19.67
2018-02-15T12:30:52.565Z,17.80
2018-02-15T12:33:19.334Z,20.60
2018-02-15T12:35:46.076Z,20.70
2018-02-15T12:38:12.920Z,15.30
2018-02-15T12:40:39.755Z,14.00
2018-02-15T12:43:06.521Z,20.53
2018-02-15T12:45:33.339Z,26.43
2018-02-15T12:48:00.056Z,14.93
2018-02-15T12:50:26.839Z,20.57
2018-02-15T12:52:53.566Z,32.77
2018-02-15T12:55:20.306Z,16.63
2018-02-15T12:57:47.053Z,18.47
2018-02-15T13:00:13.779Z,16.23
2018-02-15T13:02:40.518Z,15.63
2018-02-15T13:05:07.298Z,15.10
2018-02-15T13:07:34.134Z,16.13
2018-02-15T13:10:00.906Z,17.23
2018-02-15T13:12:33.460Z,19.03
2018-02-15T13:15:00.210Z,15.00
2018-02-15T13:17:26.951Z,14.60
2018-02-15T13:19:59.594Z,16.40
2018-02-15T13:22:32.048Z,18.40
2018-02-15T13:24:58.799Z,14.30
2018-02-15T13:27:31.314Z,14.00
2018-02-15T13:29:58.049Z,18.93
2018-02-15T13:32:24.775Z,27.50
2018-02-15T13:34:51.513Z,18.60
2018-02-15T13:37:18.257Z,18.43
2018-02-15T13:39:44.990Z,16.77
2018-02-15T13:42:11.723Z,14.73
2018-02-15T13:44:38.439Z,15.50
2018-02-15T13:47:05.198Z,18.33
2018-02-15T13:49:31.898Z,15.43
2018-02-15T13:51:58.613Z,22.47
2018-02-15T13:54:25.337Z,18.73
2018-02-15T13:56:52.049Z,19.40
2018-02-15T13:59:18.765Z,12.70
2018-02-15T14:01:45.496Z,16.73
2018-02-15T14:04:12.235Z,14.17
2018-02-15T14:06:38.976Z,12.60
2018-02-15T14:09:05.719Z,11.93
2018-02-15T14:11:32.445Z,14.60
2018-02-15T14:13:59.202Z,22.40
2018-02-15T14:16:25.943Z,16.43
2018-02-15T14:18:52.672Z,15.23
2018-02-15T14:21:19.390Z,16.47
2018-02-15T14:23:46.147Z,21.77
2018-02-15T14:26:12.885Z,15.60
2018-02-15T14:28:39.593Z,16.70
2018-02-15T14:31:06.347Z,21.90
2018-02-15T14:33:33.060Z,14.93
2018-02-15T14:35:59.792Z,16.20
2018-02-15T14:38:26.546Z,18.90
2018-02-15T14:40:53.257Z,15.67
2018-02-15T14:43:19.973Z,17.57
2018-02-15T14:45:46.702Z,15.77
2018-02-15T14:48:13.423Z,17.57
2018-02-15T14:50:40.142Z,15.43
2018-02-15T14:53:06.882Z,16.40
2018-02-15T14:55:33.594Z,17.87
2018-02-15T14:58:00.311Z,19.17
2018-02-15T15:00:27.025Z,17.00
2018-02-15T15:02:53.760Z,14.10
2018-02-15T15:05:20.511Z,17.70
2018-02-15T15:07:47.235Z,16.80
2018-02-15T15:10:13.930Z,19.33
2018-02-15T15:12:40.663Z,17.07
2018-02-15T15:15:07.404Z,17.93
2018-02-15T15:17:34.110Z,22.80
2018-02-15T15:20:00.823Z,24.03
2018-02-15T15:22:27.585Z,19.83
2018-02-15T15:24:54.334Z,20.37
2018-02-15T15:27:21.039Z,21.00
2018-02-15T15:29:47.781Z,20.20
2018-02-15T15:32:14.496Z,27.40
2018-02-15T15:34:41.230Z,27.23
2018-02-15T15:37:08.724Z,25.67
2018-02-15T15:39:35.545Z,22.43
2018-02-15T15:42:02.289Z,22.03
2018-02-15T15:44:29.038Z,38.80
2018-02-15T15:46:55.821Z,22.17
2018-02-15T15:49:22.553Z,36.13
2018-02-15T15:51:49.280Z,43.63
2018-02-15T15:54:16.026Z,28.43
2018-02-15T15:56:42.755Z,32.83
2018-02-15T15:59:09.494Z,29.97
2018-02-15T16:01:36.226Z,36.63
2018-02-15T16:04:03.003Z,57.57
2018-02-15T16:06:29.721Z,32.37
2018-02-15T16:08:56.484Z,39.60
2018-02-15T16:11:23.227Z,33.33
2018-02-15T16:13:49.937Z,32.90
2018-02-15T16:16:16.670Z,21.93
2018-02-15T16:18:43.404Z,35.97
2018-02-15T16:21:10.149Z,39.27
2018-02-15T16:23:36.854Z,41.30
2018-02-15T16:26:03.603Z,49.60
2018-02-15T16:28:30.311Z,30.60
2018-02-15T16:31:01.721Z,27.10
2018-02-15T16:33:28.451Z,25.00
2018-02-15T16:35:55.201Z,27.83
2018-02-15T16:38:21.947Z,32.37
2018-02-15T16:40:48.699Z,29.90
2018-02-15T16:43:15.434Z,31.33
2018-02-15T16:45:47.105Z,27.30
2018-02-15T16:48:13.830Z,26.70
2018-02-15T16:50:40.596Z,36.93
2018-02-15T16:53:07.331Z,44.97
2018-02-15T16:55:34.058Z,34.90
2018-02-15T16:58:05.095Z,29.33
2018-02-15T17:00:31.825Z,43.23
2018-02-15T17:02:58.589Z,33.17
2018-02-15T17:05:25.324Z,27.50
2018-02-15T17:07:52.059Z,30.15
2018-02-15T17:10:18.839Z,39.35
2018-02-15T17:12:45.559Z,32.10
2018-02-15T17:15:17.809Z,30.88
2018-02-15T17:17:45.093Z,28.40
2018-02-15T17:20:12.567Z,33.80
2018-02-15T17:22:39.332Z,36.43
2018-02-15T17:25:06.052Z,34.53
2018-02-15T17:27:32.808Z,34.40
2018-02-15T17:29:59.539Z,35.20
2018-02-15T17:32:26.259Z,34.53
2018-02-15T17:34:52.996Z,38.40
2018-02-15T17:37:19.703Z,28.80
2018-02-15T17:39:46.476Z,28.80
2018-02-15T17:42:13.240Z,28.10
2018-02-15T17:44:39.967Z,28.33
2018-02-15T17:47:06.702Z,24.13
2018-02-15T17:49:33.441Z,32.07
2018-02-15T17:52:00.153Z,27.33
2018-02-15T17:54:26.920Z,27.03
2018-02-15T17:56:53.630Z,31.60
2018-02-15T17:59:20.369Z,33.50
2018-02-15T18:01:47.161Z,31.70
2018-02-15T18:04:14.099Z,34.80
2018-02-15T18:06:40.877Z,33.43
2018-02-15T18:09:07.608Z,30.40
2018-02-15T18:11:34.337Z,30.47
2018-02-15T18:14:01.124Z,31.10
2018-02-15T18:16:27.843Z,34.03
2018-02-15T18:18:54.594Z,33.77
2018-02-15T18:21:21.485Z,31.60
2018-02-15T18:23:48.227Z,29.93
2018-02-15T18:26:14.980Z,34.50
2018-02-15T18:28:42.366Z,33.07
2018-02-15T18:31:09.160Z,28.30
2018-02-15T18:33:35.938Z,36.30
2018-02-15T18:36:02.670Z,30.37
2018-02-15T18:38:29.422Z,40.40
2018-02-15T18:40:56.167Z,29.70
2018-02-15T18:43:22.906Z,28.40
2018-02-15T18:45:49.638Z,33.93
2018-02-15T18:48:16.351Z,44.37
2018-02-15T18:50:43.106Z,38.30
2018-02-15T18:53:09.850Z,37.80
2018-02-15T18:55:36.594Z,35.40
2018-02-15T18:58:03.323Z,37.63
2018-02-15T19:00:30.065Z,31.53
2018-02-15T19:02:56.877Z,34.40
2018-02-15T19:05:23.615Z,32.50
2018-02-15T19:07:50.416Z,32.00
2018-02-15T19:10:17.154Z,37.00
2018-02-15T19:12:43.887Z,31.50
2018-02-15T19:15:10.635Z,34.07
2018-02-15T19:17:37.371Z,36.90
2018-02-15T19:20:16.442Z,36.80
2018-02-15T19:22:43.182Z,27.80
2018-02-15T19:25:14.229Z,30.87
2018-02-15T19:27:40.987Z,36.43
2018-02-15T19:30:07.716Z,35.87
2018-02-15T19:32:34.477Z,30.30
2018-02-15T19:35:01.200Z,40.33
2018-02-15T19:37:32.724Z,31.50
2018-02-15T19:39:59.610Z,34.40
2018-02-15T19:42:26.345Z,31.67
2018-02-15T19:44:53.197Z,34.73
2018-02-15T19:47:19.941Z,35.37
2018-02-15T19:49:46.691Z,34.63
2018-02-15T19:52:17.989Z,34.10
2018-02-15T19:54:44.762Z,31.90
2018-02-15T19:57:11.529Z,27.73
2018-02-15T19:59:38.273Z,33.00
2018-02-15T20:02:05.101Z,31.23
2018-02-15T20:04:31.858Z,31.37
2018-02-15T20:06:58.660Z,28.70
2018-02-15T20:09:25.448Z,30.70
2018-02-15T20:11:52.358Z,37.63
2018-02-15T20:14:19.210Z,35.43
2018-02-15T20:16:46.143Z,35.77
2018-02-15T20:19:13.002Z,29.10
2018-02-15T20:21:39.993Z,32.20
2018-02-15T20:24:06.995Z,37.03
2018-02-15T20:26:39.621Z,29.97
2018-02-15T20:29:06.789Z,35.20
2018-02-15T20:31:33.690Z,35.00
2018-02-15T20:34:00.607Z,35.10
2018-02-15T20:36:27.414Z,35.00
2018-02-15T20:38:59.944Z,30.27
2018-02-15T20:41:26.845Z,39.07
2018-02-15T20:43:53.617Z,29.17
2018-02-15T20:46:20.654Z,35.83
2018-02-15T20:48:47.850Z,34.90
2018-02-15T20:51:20.512Z,40.73
2018-02-15T20:53:53.170Z,36.53
2018-02-15T20:56:20.029Z,28.30
2018-02-15T20:58:46.817Z,35.70
2018-02-15T21:01:13.531Z,27.43
2018-02-15T21:03:40.333Z,27.00
2018-02-15T21:06:07.184Z,31.90
2018-02-15T21:08:33.924Z,29.97
2018-02-15T21:11:00.707Z,27.43
2018-02-15T21:13:27.484Z,29.03
2018-02-15T21:15:54.248Z,30.13
2018-02-15T21:18:20.995Z,37.50
2018-02-15T21:20:47.747Z,28.10
2018-02-15T21:23:14.502Z,34.60
2018-02-15T21:25:41.238Z,31.30
2018-02-15T21:28:07.985Z,29.00
2018-02-15T21:30:34.718Z,31.30
2018-02-15T21:33:01.469Z,34.93
2018-02-15T21:35:28.229Z,26.13
2018-02-15T21:37:54.969Z,35.50
2018-02-15T21:40:21.709Z,30.20
2018-02-15T21:42:48.460Z,25.70
2018-02-15T21:45:15.188Z,29.85
2018-02-15T21:47:41.943Z,29.90
2018-02-15T21:50:08.675Z,29.53
2018-02-15T21:52:35.454Z,32.93
2018-02-15T21:55:02.223Z,29.07
2018-02-15T21:57:28.944Z,28.17
2018-02-15T21:59:55.673Z,29.30
2018-02-15T22:02:22.412Z,33.13
2018-02-15T22:04:49.135Z,31.87
2018-02-15T22:07:15.884Z,29.23
2018-02-15T22:09:42.614Z,34.97
2018-02-15T22:12:09.368Z,31.07
2018-02-15T22:14:36.120Z,30.77
2018-02-15T22:17:02.851Z,31.23
2018-02-15T22:19:29.620Z,32.13
2018-02-15T22:21:56.357Z,31.33
2018-02-15T22:24:23.137Z,32.60
2018-02-15T22:26:50.036Z,37.60
2018-02-15T22:29:23.901Z,47.70
2018-02-15T22:31:50.659Z,35.17
2018-02-15T22:34:17.449Z,40.50
2018-02-15T22:36:44.170Z,41.87
2018-02-15T22:39:10.918Z,33.77
2018-02-15T22:41:37.657Z,37.67
2018-02-15T22:44:04.407Z,36.63
2018-02-15T22:46:31.135Z,36.60
2018-02-15T22:48:57.882Z,40.23
2018-02-15T22:51:24.610Z,42.63
2018-02-15T22:53:51.376Z,31.07
2018-02-15T22:56:18.118Z,35.33
2018-02-15T22:58:44.857Z,30.27
2018-02-15T23:01:11.597Z,38.40
2018-02-15T23:03:38.378Z,37.10
2018-02-15T23:06:05.172Z,34.67
2018-02-15T23:08:31.900Z,35.77
2018-02-15T23:10:58.673Z,33.20
2018-02-15T23:13:25.420Z,41.20
2018-02-15T23:15:52.156Z,36.35
2018-02-15T23:18:18.917Z,34.58
2018-02-15T23:20:45.652Z,37.33
2018-02-15T23:23:12.417Z,38.10
2018-02-15T23:25:39.186Z,37.13
2018-02-15T23:28:05.966Z,35.67
2018-02-15T23:30:32.698Z,39.63
2018-02-15T23:32:59.455Z,33.83
2018-02-15T23:35:26.260Z,37.97
2018-02-15T23:37:52.989Z,31.75
2018-02-15T23:40:19.747Z,41.75
2018-02-15T23:42:46.484Z,36.70
2018-02-15T23:45:13.208Z,33.45
2018-02-15T23:47:39.989Z,36.00
2018-02-15T23:50:06.735Z,31.58
2018-02-15T23:52:34.367Z,31.90
2018-02-15T23:55:01.118Z,33.08
2018-02-15T23:57:27.848Z,31.73
2018-02-15T23:59:54.582Z,39.55
